sensor_id;sensor_type;location;lat;lon;timestamp;pressure;altitude;pressure_sealevel;temperature;humidity
71764;BME280;59602;52.142;5.408;2022-07-23T00:00:19;102090.44;;;16.93;73.71
71764;BME280;59602;52.142;5.408;2022-07-23T00:02:46;102085.34;;;16.88;73.58
71764;BME280;59602;52.142;5.408;2022-07-23T00:05:13;102083.75;;;16.84;73.60
71764;BME280;59602;52.142;5.408;2022-07-23T00:07:40;102079.03;;;16.80;73.72
71764;BME280;59602;52.142;5.408;2022-07-23T00:10:08;102086.50;;;16.80;73.78
71764;BME280;59602;52.142;5.408;2022-07-23T00:12:35;102077.06;;;16.77;74.12
71764;BME280;59602;52.142;5.408;2022-07-23T00:15:03;102081.78;;;16.77;74.30
71764;BME280;59602;52.142;5.408;2022-07-23T00:17:30;102087.66;;;16.75;74.34
71764;BME280;59602;52.142;5.408;2022-07-23T00:19:57;102084.50;;;16.73;74.34
71764;BME280;59602;52.142;5.408;2022-07-23T00:22:24;102083.72;;;16.69;74.54
71764;BME280;59602;52.142;5.408;2022-07-23T00:24:50;102080.16;;;16.65;74.47
71764;BME280;59602;52.142;5.408;2022-07-23T00:27:37;102082.16;;;16.61;74.44
71764;BME280;59602;52.142;5.408;2022-07-23T00:30:04;102084.50;;;16.59;74.97
71764;BME280;59602;52.142;5.408;2022-07-23T00:32:30;102082.16;;;16.61;75.36
71764;BME280;59602;52.142;5.408;2022-07-23T00:35:20;102076.66;;;16.57;75.04
71764;BME280;59602;52.142;5.408;2022-07-23T00:37:48;102074.69;;;16.54;75.06
71764;BME280;59602;52.142;5.408;2022-07-23T00:40:15;102066.81;;;16.49;75.13
71764;BME280;59602;52.142;5.408;2022-07-23T00:42:42;102068.38;;;16.47;75.62
71764;BME280;59602;52.142;5.408;2022-07-23T00:45:08;102065.63;;;16.43;75.32
71764;BME280;59602;52.142;5.408;2022-07-23T00:47:35;102061.69;;;16.40;75.74
71764;BME280;59602;52.142;5.408;2022-07-23T00:50:04;102055.44;;;16.40;75.54
71764;BME280;59602;52.142;5.408;2022-07-23T00:52:32;102055.03;;;16.38;75.54
71764;BME280;59602;52.142;5.408;2022-07-23T00:54:59;102057.78;;;16.34;75.79
71764;BME280;59602;52.142;5.408;2022-07-23T00:57:26;102050.31;;;16.31;75.94
71764;BME280;59602;52.142;5.408;2022-07-23T00:59:54;102057.78;;;16.31;76.20
71764;BME280;59602;52.142;5.408;2022-07-23T01:02:21;102055.41;;;16.29;76.71
71764;BME280;59602;52.142;5.408;2022-07-23T01:04:48;102048.75;;;16.30;76.60
71764;BME280;59602;52.142;5.408;2022-07-23T01:07:15;102048.75;;;16.30;76.61
71764;BME280;59602;52.142;5.408;2022-07-23T01:09:43;102050.31;;;16.28;75.88
71764;BME280;59602;52.142;5.408;2022-07-23T01:12:09;102040.88;;;16.25;75.97
71764;BME280;59602;52.142;5.408;2022-07-23T01:14:36;102043.25;;;16.23;76.09
71764;BME280;59602;52.142;5.408;2022-07-23T01:17:04;102047.16;;;16.22;76.27
71764;BME280;59602;52.142;5.408;2022-07-23T01:19:31;102045.97;;;16.19;76.24
71764;BME280;59602;52.142;5.408;2022-07-23T01:21:58;102036.56;;;16.17;76.39
71764;BME280;59602;52.142;5.408;2022-07-23T01:24:27;102036.94;;;16.15;76.13
71764;BME280;59602;52.142;5.408;2022-07-23T01:26:54;102038.13;;;16.11;75.82
71764;BME280;59602;52.142;5.408;2022-07-23T01:29:20;102036.94;;;16.08;76.24
71764;BME280;59602;52.142;5.408;2022-07-23T01:31:48;102036.53;;;16.03;76.26
71764;BME280;59602;52.142;5.408;2022-07-23T01:34:15;102037.31;;;16.00;76.30
71764;BME280;59602;52.142;5.408;2022-07-23T01:36:41;102038.09;;;15.96;76.26
71764;BME280;59602;52.142;5.408;2022-07-23T01:39:08;102046.28;;;15.93;76.41
71764;BME280;59602;52.142;5.408;2022-07-23T01:41:36;102038.44;;;15.91;76.63
71764;BME280;59602;52.142;5.408;2022-07-23T01:44:05;102042.78;;;15.92;76.58
71764;BME280;59602;52.142;5.408;2022-07-23T01:46:32;102031.78;;;15.89;76.75
71764;BME280;59602;52.142;5.408;2022-07-23T01:48:58;102040.78;;;15.86;76.59
71764;BME280;59602;52.142;5.408;2022-07-23T01:51:25;102038.03;;;15.82;76.69
71764;BME280;59602;52.142;5.408;2022-07-23T01:53:52;102035.69;;;15.84;77.26
71764;BME280;59602;52.142;5.408;2022-07-23T01:56:18;102041.56;;;15.86;77.29
71764;BME280;59602;52.142;5.408;2022-07-23T01:58:48;102038.81;;;15.86;77.44
71764;BME280;59602;52.142;5.408;2022-07-23T02:01:15;102035.31;;;15.86;77.21
71764;BME280;59602;52.142;5.408;2022-07-23T02:03:41;102037.66;;;15.84;77.24
71764;BME280;59602;52.142;5.408;2022-07-23T02:06:08;102036.84;;;15.80;77.12
71764;BME280;59602;52.142;5.408;2022-07-23T02:08:34;102032.13;;;15.76;77.08
71764;BME280;59602;52.142;5.408;2022-07-23T02:11:01;102033.69;;;15.74;77.42
71764;BME280;59602;52.142;5.408;2022-07-23T02:13:28;102031.75;;;15.74;77.44
71764;BME280;59602;52.142;5.408;2022-07-23T02:15:59;102030.16;;;15.73;77.24
71764;BME280;59602;52.142;5.408;2022-07-23T02:18:27;102029.31;;;15.69;77.34
71764;BME280;59602;52.142;5.408;2022-07-23T02:20:54;102031.69;;;15.67;77.35
71764;BME280;59602;52.142;5.408;2022-07-23T02:23:20;102026.16;;;15.64;77.39
71764;BME280;59602;52.142;5.408;2022-07-23T02:25:47;102023.44;;;15.64;77.43
71764;BME280;59602;52.142;5.408;2022-07-23T02:28:14;102031.66;;;15.64;77.66
71764;BME280;59602;52.142;5.408;2022-07-23T02:30:41;102024.22;;;15.61;77.66
71764;BME280;59602;52.142;5.408;2022-07-23T02:33:09;102030.06;;;15.59;77.14
71764;BME280;59602;52.142;5.408;2022-07-23T02:35:35;102033.19;;;15.57;77.51
71764;BME280;59602;52.142;5.408;2022-07-23T02:38:02;102040.25;;;15.59;77.82
71764;BME280;59602;52.142;5.408;2022-07-23T02:40:28;102032.03;;;15.59;77.85
71764;BME280;59602;52.142;5.408;2022-07-23T02:42:55;102039.81;;;15.53;77.56
71764;BME280;59602;52.142;5.408;2022-07-23T02:45:22;102034.31;;;15.49;77.42
71764;BME280;59602;52.142;5.408;2022-07-23T02:47:48;102025.72;;;15.47;77.70
71764;BME280;59602;52.142;5.408;2022-07-23T02:50:16;102043.69;;;15.45;77.67
71764;BME280;59602;52.142;5.408;2022-07-23T02:52:42;102037.41;;;15.41;78.02
71764;BME280;59602;52.142;5.408;2022-07-23T02:55:09;102043.69;;;15.41;77.95
71764;BME280;59602;52.142;5.408;2022-07-23T02:57:36;102048.38;;;15.44;78.12
71764;BME280;59602;52.142;5.408;2022-07-23T03:00:04;102044.50;;;15.45;77.96
71764;BME280;59602;52.142;5.408;2022-07-23T03:02:32;102045.25;;;15.42;77.83
71764;BME280;59602;52.142;5.408;2022-07-23T03:04:59;102045.63;;;15.37;77.85
71764;BME280;59602;52.142;5.408;2022-07-23T03:07:26;102049.53;;;15.36;77.82
71764;BME280;59602;52.142;5.408;2022-07-23T03:09:52;102044.81;;;15.33;77.69
71764;BME280;59602;52.142;5.408;2022-07-23T03:12:19;102057.72;;;15.32;77.55
71764;BME280;59602;52.142;5.408;2022-07-23T03:14:45;102056.13;;;15.31;77.96
71764;BME280;59602;52.142;5.408;2022-07-23T03:17:12;102059.69;;;15.32;78.04
71764;BME280;59602;52.142;5.408;2022-07-23T03:19:38;102060.88;;;15.34;77.76
71764;BME280;59602;52.142;5.408;2022-07-23T03:22:05;102056.53;;;15.33;77.74
71764;BME280;59602;52.142;5.408;2022-07-23T03:24:31;102053.38;;;15.28;77.74
71764;BME280;59602;52.142;5.408;2022-07-23T03:27:17;102055.31;;;15.24;77.82
71764;BME280;59602;52.142;5.408;2022-07-23T03:29:44;102060.38;;;15.22;77.81
71764;BME280;59602;52.142;5.408;2022-07-23T03:32:10;102059.59;;;15.21;77.72
71764;BME280;59602;52.142;5.408;2022-07-23T03:34:37;102065.88;;;15.22;77.88
71764;BME280;59602;52.142;5.408;2022-07-23T03:37:06;102068.59;;;15.22;78.03
71764;BME280;59602;52.142;5.408;2022-07-23T03:39:33;102068.59;;;15.22;78.56
71764;BME280;59602;52.142;5.408;2022-07-23T03:42:00;102069.00;;;15.24;78.38
71764;BME280;59602;52.142;5.408;2022-07-23T03:44:27;102069.38;;;15.19;77.92
71764;BME280;59602;52.142;5.408;2022-07-23T03:46:54;102069.75;;;15.17;78.31
71764;BME280;59602;52.142;5.408;2022-07-23T03:49:20;102067.41;;;15.19;78.21
71764;BME280;59602;52.142;5.408;2022-07-23T03:51:47;102058.84;;;15.21;78.44
71764;BME280;59602;52.142;5.408;2022-07-23T03:54:13;102057.66;;;15.22;78.35
71764;BME280;59602;52.142;5.408;2022-07-23T03:56:40;102054.50;;;15.20;77.89
71764;BME280;59602;52.142;5.408;2022-07-23T03:59:07;102053.31;;;15.17;78.21
71764;BME280;59602;52.142;5.408;2022-07-23T04:01:33;102046.66;;;15.14;78.40
71764;BME280;59602;52.142;5.408;2022-07-23T04:04:01;102042.72;;;15.12;78.01
71764;BME280;59602;52.142;5.408;2022-07-23T04:06:27;102044.28;;;15.09;78.09
71764;BME280;59602;52.142;5.408;2022-07-23T04:08:54;102048.56;;;15.10;77.98
71764;BME280;59602;52.142;5.408;2022-07-23T04:11:22;102043.47;;;15.09;78.27
71764;BME280;59602;52.142;5.408;2022-07-23T04:13:48;102052.91;;;15.11;78.64
71764;BME280;59602;52.142;5.408;2022-07-23T04:16:15;102060.31;;;15.11;78.33
71764;BME280;59602;52.142;5.408;2022-07-23T04:18:42;102049.75;;;15.09;78.48
71764;BME280;59602;52.142;5.408;2022-07-23T04:21:08;102051.69;;;15.09;78.49
71764;BME280;59602;52.142;5.408;2022-07-23T04:23:35;102048.53;;;15.07;78.09
71764;BME280;59602;52.142;5.408;2022-07-23T04:26:01;102050.50;;;15.06;78.37
71764;BME280;59602;52.142;5.408;2022-07-23T04:28:28;102047.75;;;15.06;78.52
71764;BME280;59602;52.142;5.408;2022-07-23T04:30:57;102050.53;;;15.10;78.83
71764;BME280;59602;52.142;5.408;2022-07-23T04:33:24;102050.94;;;15.12;78.64
71764;BME280;59602;52.142;5.408;2022-07-23T04:35:50;102050.53;;;15.13;78.84
71764;BME280;59602;52.142;5.408;2022-07-23T04:38:17;102045.88;;;15.14;78.63
71764;BME280;59602;52.142;5.408;2022-07-23T04:40:44;102052.91;;;15.15;78.39
71764;BME280;59602;52.142;5.408;2022-07-23T04:43:11;102053.72;;;15.19;78.71
71764;BME280;59602;52.142;5.408;2022-07-23T04:45:37;102057.25;;;15.20;78.81
71764;BME280;59602;52.142;5.408;2022-07-23T04:48:05;102062.34;;;15.21;78.65
71764;BME280;59602;52.142;5.408;2022-07-23T04:50:32;102063.91;;;15.22;78.47
71764;BME280;59602;52.142;5.408;2022-07-23T04:53:03;102060.03;;;15.23;78.73
71764;BME280;59602;52.142;5.408;2022-07-23T04:55:29;102065.88;;;15.22;78.61
71764;BME280;59602;52.142;5.408;2022-07-23T04:57:57;102064.31;;;15.21;78.67
71764;BME280;59602;52.142;5.408;2022-07-23T05:00:24;102070.94;;;15.20;78.61
71764;BME280;59602;52.142;5.408;2022-07-23T05:02:51;102071.75;;;15.24;78.47
71764;BME280;59602;52.142;5.408;2022-07-23T05:05:17;102071.78;;;15.27;78.43
71764;BME280;59602;52.142;5.408;2022-07-23T05:07:44;102071.03;;;15.30;78.61
71764;BME280;59602;52.142;5.408;2022-07-23T05:10:11;102063.97;;;15.33;77.90
71764;BME280;59602;52.142;5.408;2022-07-23T05:12:37;102072.63;;;15.35;78.45
71764;BME280;59602;52.142;5.408;2022-07-23T05:15:04;102065.22;;;15.39;77.95
71764;BME280;59602;52.142;5.408;2022-07-23T05:17:31;102076.19;;;15.43;78.43
71764;BME280;59602;52.142;5.408;2022-07-23T05:19:57;102076.97;;;15.47;78.63
71764;BME280;59602;52.142;5.408;2022-07-23T05:22:26;102080.13;;;15.49;78.49
71764;BME280;59602;52.142;5.408;2022-07-23T05:24:53;102082.53;;;15.54;78.48
71764;BME280;59602;52.142;5.408;2022-07-23T05:27:20;102085.28;;;15.57;78.88
71764;BME280;59602;52.142;5.408;2022-07-23T05:29:46;102079.03;;;15.61;79.06
71764;BME280;59602;52.142;5.408;2022-07-23T05:32:13;102082.97;;;15.67;79.10
71764;BME280;59602;52.142;5.408;2022-07-23T05:34:39;102083.44;;;15.72;79.11
71764;BME280;59602;52.142;5.408;2022-07-23T05:37:06;102087.38;;;15.79;79.09
71764;BME280;59602;52.142;5.408;2022-07-23T05:39:33;102096.81;;;15.85;79.46
71764;BME280;59602;52.142;5.408;2022-07-23T05:41:59;102093.72;;;15.90;79.50
71764;BME280;59602;52.142;5.408;2022-07-23T05:44:26;102101.56;;;15.95;79.44
71764;BME280;59602;52.142;5.408;2022-07-23T05:47:00;102095.69;;;16.00;79.57
71764;BME280;59602;52.142;5.408;2022-07-23T05:49:27;102100.03;;;16.05;79.31
71764;BME280;59602;52.142;5.408;2022-07-23T05:51:54;102097.31;;;16.15;79.39
71764;BME280;59602;52.142;5.408;2022-07-23T05:54:20;102105.97;;;16.21;79.68
71764;BME280;59602;52.142;5.408;2022-07-23T05:56:47;102111.09;;;16.26;79.59
71764;BME280;59602;52.142;5.408;2022-07-23T05:59:14;102110.31;;;16.33;80.15
71764;BME280;59602;52.142;5.408;2022-07-23T06:01:42;102108.38;;;16.44;79.35
71764;BME280;59602;52.142;5.408;2022-07-23T06:04:08;102101.72;;;16.56;79.33
71764;BME280;59602;52.142;5.408;2022-07-23T06:06:35;102102.56;;;16.64;78.56
71764;BME280;59602;52.142;5.408;2022-07-23T06:09:02;102107.25;;;16.74;77.76
71764;BME280;59602;52.142;5.408;2022-07-23T06:11:29;102109.25;;;16.88;77.82
71764;BME280;59602;52.142;5.408;2022-07-23T06:13:57;102105.75;;;17.01;77.18
71764;BME280;59602;52.142;5.408;2022-07-23T06:16:24;102110.06;;;17.13;76.12
71764;BME280;59602;52.142;5.408;2022-07-23T06:18:50;102106.91;;;17.29;75.92
71764;BME280;59602;52.142;5.408;2022-07-23T06:21:18;102105.69;;;17.45;75.36
71764;BME280;59602;52.142;5.408;2022-07-23T06:24:05;102104.88;;;17.58;74.87
71764;BME280;59602;52.142;5.408;2022-07-23T06:26:32;102111.13;;;17.73;74.67
71764;BME280;59602;52.142;5.408;2022-07-23T06:28:58;102108.78;;;17.86;73.79
71764;BME280;59602;52.142;5.408;2022-07-23T06:31:25;102114.59;;;17.99;73.44
71764;BME280;59602;52.142;5.408;2022-07-23T06:33:52;102109.44;;;18.15;73.77
71764;BME280;59602;52.142;5.408;2022-07-23T06:36:18;102115.25;;;18.28;72.45
71764;BME280;59602;52.142;5.408;2022-07-23T06:38:45;102117.56;;;18.40;71.75
71764;BME280;59602;52.142;5.408;2022-07-23T06:41:14;102121.00;;;18.55;71.37
71764;BME280;59602;52.142;5.408;2022-07-23T06:43:40;102118.59;;;18.64;70.94
71764;BME280;59602;52.142;5.408;2022-07-23T06:46:07;102114.97;;;18.78;70.01
71764;BME280;59602;52.142;5.408;2022-07-23T06:48:33;102121.97;;;18.86;69.66
71764;BME280;59602;52.142;5.408;2022-07-23T06:51:02;102120.72;;;18.98;68.55
71764;BME280;59602;52.142;5.408;2022-07-23T06:53:29;102128.94;;;19.05;65.89
71764;BME280;59602;52.142;5.408;2022-07-23T06:55:56;102129.75;;;19.02;66.25
71764;BME280;59602;52.142;5.408;2022-07-23T06:58:22;102127.09;;;18.88;66.38
71764;BME280;59602;52.142;5.408;2022-07-23T07:00:49;102132.66;;;18.81;65.92
71764;BME280;59602;52.142;5.408;2022-07-23T07:03:17;102128.34;;;18.80;65.21
71764;BME280;59602;52.142;5.408;2022-07-23T07:05:50;102122.47;;;18.78;64.98
71764;BME280;59602;52.142;5.408;2022-07-23T07:08:20;102124.44;;;18.74;64.94
71764;BME280;59602;52.142;5.408;2022-07-23T07:11:04;102128.34;;;18.76;64.66
71764;BME280;59602;52.142;5.408;2022-07-23T07:13:31;102129.94;;;18.77;63.47
71764;BME280;59602;52.142;5.408;2022-07-23T07:15:58;102131.09;;;18.76;63.33
71764;BME280;59602;52.142;5.408;2022-07-23T07:18:26;102133.47;;;18.74;64.67
71764;BME280;59602;52.142;5.408;2022-07-23T07:20:53;102148.03;;;18.78;63.56
71764;BME280;59602;52.142;5.408;2022-07-23T07:23:22;102143.31;;;18.82;64.00
71764;BME280;59602;52.142;5.408;2022-07-23T07:25:48;102142.88;;;18.84;62.17
71764;BME280;59602;52.142;5.408;2022-07-23T07:28:15;102142.47;;;18.85;62.16
71764;BME280;59602;52.142;5.408;2022-07-23T07:30:42;102152.31;;;18.86;62.92
71764;BME280;59602;52.142;5.408;2022-07-23T07:33:08;102153.88;;;18.87;63.58
71764;BME280;59602;52.142;5.408;2022-07-23T07:35:35;102152.28;;;18.90;63.24
71764;BME280;59602;52.142;5.408;2022-07-23T07:41:00;102155.41;;;18.96;62.52
71764;BME280;59602;52.142;5.408;2022-07-23T07:43:29;102158.56;;;18.94;61.30
71764;BME280;59602;52.142;5.408;2022-07-23T07:45:55;102150.66;;;18.96;63.15
71764;BME280;59602;52.142;5.408;2022-07-23T07:48:22;102150.63;;;19.00;61.71
71764;BME280;59602;52.142;5.408;2022-07-23T07:50:49;102159.31;;;18.98;61.13
71764;BME280;59602;52.142;5.408;2022-07-23T07:53:15;102159.69;;;19.00;61.93
71764;BME280;59602;52.142;5.408;2022-07-23T07:55:42;102159.28;;;19.02;61.32
71764;BME280;59602;52.142;5.408;2022-07-23T07:58:17;102162.00;;;19.09;60.88
71764;BME280;59602;52.142;5.408;2022-07-23T08:00:43;102156.50;;;19.09;60.74
71764;BME280;59602;52.142;5.408;2022-07-23T08:03:10;102164.38;;;19.07;61.15
71764;BME280;59602;52.142;5.408;2022-07-23T08:05:54;102167.16;;;19.03;59.65
71764;BME280;59602;52.142;5.408;2022-07-23T08:08:21;102170.28;;;19.05;61.67
71764;BME280;59602;52.142;5.408;2022-07-23T08:10:47;102171.81;;;19.14;60.81
71764;BME280;59602;52.142;5.408;2022-07-23T08:13:15;102163.53;;;19.14;61.34
71764;BME280;59602;52.142;5.408;2022-07-23T08:16:01;102177.31;;;19.14;61.50
71764;BME280;59602;52.142;5.408;2022-07-23T08:18:29;102172.22;;;19.08;61.61
71764;BME280;59602;52.142;5.408;2022-07-23T08:21:00;102162.78;;;19.10;61.87
71764;BME280;59602;52.142;5.408;2022-07-23T08:23:26;102165.50;;;19.13;61.64
71764;BME280;59602;52.142;5.408;2022-07-23T08:25:56;102177.66;;;19.19;60.39
71764;BME280;59602;52.142;5.408;2022-07-23T08:28:24;102169.00;;;19.21;60.62
71764;BME280;59602;52.142;5.408;2022-07-23T08:30:51;102167.41;;;19.20;60.10
71764;BME280;59602;52.142;5.408;2022-07-23T08:33:18;102174.50;;;19.21;60.86
71764;BME280;59602;52.142;5.408;2022-07-23T08:35:59;102176.81;;;19.26;61.13
71764;BME280;59602;52.142;5.408;2022-07-23T08:38:28;102173.22;;;19.33;61.32
71764;BME280;59602;52.142;5.408;2022-07-23T08:41:22;102173.22;;;19.33;59.85
71764;BME280;59602;52.142;5.408;2022-07-23T08:43:49;102170.06;;;19.34;60.48
71764;BME280;59602;52.142;5.408;2022-07-23T08:46:19;102176.72;;;19.40;60.11
71764;BME280;59602;52.142;5.408;2022-07-23T08:48:49;102169.22;;;19.41;59.42
71764;BME280;59602;52.142;5.408;2022-07-23T08:54:03;102171.66;;;19.32;58.50
71764;BME280;59602;52.142;5.408;2022-07-23T08:56:31;102168.91;;;19.32;57.80
71764;BME280;59602;52.142;5.408;2022-07-23T08:58:58;102169.28;;;19.34;57.90
71764;BME280;59602;52.142;5.408;2022-07-23T09:01:25;102174.75;;;19.37;58.80
71764;BME280;59602;52.142;5.408;2022-07-23T09:03:53;102173.97;;;19.40;59.09
71764;BME280;59602;52.142;5.408;2022-07-23T09:06:20;102173.13;;;19.43;58.72
71764;BME280;59602;52.142;5.408;2022-07-23T09:08:47;102184.16;;;19.43;58.50
71764;BME280;59602;52.142;5.408;2022-07-23T09:11:16;102170.69;;;19.49;59.03
71764;BME280;59602;52.142;5.408;2022-07-23T09:13:48;102173.44;;;19.53;59.69
71764;BME280;59602;52.142;5.408;2022-07-23T09:16:19;102177.31;;;19.59;58.11
71764;BME280;59602;52.142;5.408;2022-07-23T09:24:03;102178.97;;;19.49;57.36
71764;BME280;59602;52.142;5.408;2022-07-23T09:26:40;102178.94;;;19.53;57.10
71764;BME280;59602;52.142;5.408;2022-07-23T09:29:12;102173.81;;;19.55;58.56
71764;BME280;59602;52.142;5.408;2022-07-23T09:31:56;102176.47;;;19.65;58.79
71764;BME280;59602;52.142;5.408;2022-07-23T09:34:30;102175.63;;;19.68;57.79
71764;BME280;59602;52.142;5.408;2022-07-23T09:37:30;102177.63;;;19.72;57.86
71764;BME280;59602;52.142;5.408;2022-07-23T09:40:09;102179.53;;;19.78;57.96
71764;BME280;59602;52.142;5.408;2022-07-23T09:42:38;102190.13;;;19.83;58.40
71764;BME280;59602;52.142;5.408;2022-07-23T09:45:10;102186.53;;;19.86;59.39
71764;BME280;59602;52.142;5.408;2022-07-23T09:48:21;102188.00;;;19.95;58.09
71764;BME280;59602;52.142;5.408;2022-07-23T09:50:52;102190.28;;;20.03;59.13
71764;BME280;59602;52.142;5.408;2022-07-23T09:53:42;102189.06;;;20.08;58.44
71764;BME280;59602;52.142;5.408;2022-07-23T09:56:11;102185.06;;;20.13;58.26
71764;BME280;59602;52.142;5.408;2022-07-23T09:58:40;102189.72;;;20.19;57.84
71764;BME280;59602;52.142;5.408;2022-07-23T10:01:14;102187.72;;;20.20;54.98
71764;BME280;59602;52.142;5.408;2022-07-23T10:03:46;102189.31;;;20.21;55.96
71764;BME280;59602;52.142;5.408;2022-07-23T10:06:13;102185.41;;;20.15;53.52
71764;BME280;59602;52.142;5.408;2022-07-23T10:08:44;102186.59;;;20.14;53.99
71764;BME280;59602;52.142;5.408;2022-07-23T10:11:21;102178.00;;;20.08;53.30
71764;BME280;59602;52.142;5.408;2022-07-23T10:13:49;102182.69;;;20.11;54.97
71764;BME280;59602;52.142;5.408;2022-07-23T10:16:18;102186.09;;;20.22;56.99
71764;BME280;59602;52.142;5.408;2022-07-23T10:18:53;102181.59;;;20.36;56.63
71764;BME280;59602;52.142;5.408;2022-07-23T10:24:53;102172.44;;;20.42;55.44
71764;BME280;59602;52.142;5.408;2022-07-23T10:27:37;102178.41;;;20.41;54.27
71764;BME280;59602;52.142;5.408;2022-07-23T10:35:50;102186.94;;;20.50;54.88
71764;BME280;59602;52.142;5.408;2022-07-23T10:38:25;102180.59;;;20.53;55.17
71764;BME280;59602;52.142;5.408;2022-07-23T10:40:56;102178.13;;;20.62;55.05
71764;BME280;59602;52.142;5.408;2022-07-23T10:43:25;102176.41;;;20.72;55.52
71764;BME280;59602;52.142;5.408;2022-07-23T10:45:55;102179.06;;;20.79;53.54
71764;BME280;59602;52.142;5.408;2022-07-23T10:48:26;102183.28;;;20.87;55.52
71764;BME280;59602;52.142;5.408;2022-07-23T10:51:09;102177.66;;;20.94;55.21
71764;BME280;59602;52.142;5.408;2022-07-23T10:57:04;102175.00;;;21.11;54.36
71764;BME280;59602;52.142;5.408;2022-07-23T11:02:35;102177.47;;;21.29;53.23
71764;BME280;59602;52.142;5.408;2022-07-23T11:05:06;102167.56;;;21.31;55.40
71764;BME280;59602;52.142;5.408;2022-07-23T11:07:35;102167.88;;;21.37;52.08
71764;BME280;59602;52.142;5.408;2022-07-23T11:10:07;102177.31;;;21.40;53.14
71764;BME280;59602;52.142;5.408;2022-07-23T11:26:49;102163.09;;;21.61;51.74
71764;BME280;59602;52.142;5.408;2022-07-23T11:36:56;102163.25;;;21.74;50.67
71764;BME280;59602;52.142;5.408;2022-07-23T11:39:25;102174.63;;;21.80;50.91
71764;BME280;59602;52.142;5.408;2022-07-23T11:41:55;102164.34;;;21.80;50.64
71764;BME280;59602;52.142;5.408;2022-07-23T11:44:28;102164.63;;;21.86;50.94
71764;BME280;59602;52.142;5.408;2022-07-23T11:46:59;102168.38;;;21.95;51.07
71764;BME280;59602;52.142;5.408;2022-07-23T11:49:26;102167.53;;;21.98;50.87
71764;BME280;59602;52.142;5.408;2022-07-23T11:52:05;102167.88;;;22.01;50.42
71764;BME280;59602;52.142;5.408;2022-07-23T11:54:33;102165.41;;;22.06;50.38
71764;BME280;59602;52.142;5.408;2022-07-23T11:57:05;102165.41;;;22.06;51.20
71764;BME280;59602;52.142;5.408;2022-07-23T11:59:33;102166.53;;;22.09;49.81
71764;BME280;59602;52.142;5.408;2022-07-23T12:02:03;102172.06;;;22.09;50.80
71764;BME280;59602;52.142;5.408;2022-07-23T12:04:45;102170.13;;;22.06;50.00
71764;BME280;59602;52.142;5.408;2022-07-23T12:07:32;102170.22;;;22.02;50.51
71764;BME280;59602;52.142;5.408;2022-07-23T12:10:08;102165.75;;;21.88;49.31
71764;BME280;59602;52.142;5.408;2022-07-23T12:12:38;102168.53;;;21.88;50.25
71764;BME280;59602;52.142;5.408;2022-07-23T12:15:05;102164.75;;;21.98;51.24
71764;BME280;59602;52.142;5.408;2022-07-23T12:17:35;102160.56;;;22.10;49.70
71764;BME280;59602;52.142;5.408;2022-07-23T12:20:04;102156.06;;;22.16;49.87
71764;BME280;59602;52.142;5.408;2022-07-23T12:22:36;102148.78;;;22.26;48.65
71764;BME280;59602;52.142;5.408;2022-07-23T12:25:10;102153.88;;;22.28;49.37
71764;BME280;59602;52.142;5.408;2022-07-23T12:27:39;102151.66;;;22.19;48.15
71764;BME280;59602;52.142;5.408;2022-07-23T12:30:19;102151.63;;;22.23;49.81
71764;BME280;59602;52.142;5.408;2022-07-23T12:32:49;102144.72;;;22.31;49.12
71764;BME280;59602;52.142;5.408;2022-07-23T12:35:17;102141.28;;;22.43;50.82
71764;BME280;59602;52.142;5.408;2022-07-23T12:37:46;102142.59;;;22.55;49.98
71764;BME280;59602;52.142;5.408;2022-07-23T12:40:25;102144.59;;;22.54;49.37
71764;BME280;59602;52.142;5.408;2022-07-23T12:42:55;102142.69;;;22.51;50.92
71764;BME280;59602;52.142;5.408;2022-07-23T12:45:22;102142.69;;;22.51;50.80
71764;BME280;59602;52.142;5.408;2022-07-23T12:48:00;102147.47;;;22.51;50.36
71764;BME280;59602;52.142;5.408;2022-07-23T12:50:33;102139.81;;;22.55;49.61
71764;BME280;59602;52.142;5.408;2022-07-23T12:53:12;102133.50;;;22.54;50.45
71764;BME280;59602;52.142;5.408;2022-07-23T12:55:50;102144.59;;;22.54;49.07
71764;BME280;59602;52.142;5.408;2022-07-23T12:58:44;102137.84;;;22.55;49.83
71764;BME280;59602;52.142;5.408;2022-07-23T13:06:24;102139.25;;;22.80;49.84
71764;BME280;59602;52.142;5.408;2022-07-23T13:08:52;102138.81;;;22.82;50.13
71764;BME280;59602;52.142;5.408;2022-07-23T13:11:18;102140.81;;;22.81;48.75
71764;BME280;59602;52.142;5.408;2022-07-23T13:13:45;102140.56;;;22.75;49.24
71764;BME280;59602;52.142;5.408;2022-07-23T13:16:11;102139.59;;;22.82;49.14
71764;BME280;59602;52.142;5.408;2022-07-23T13:18:38;102138.53;;;22.92;50.29
71764;BME280;59602;52.142;5.408;2022-07-23T13:21:06;102133.88;;;23.06;51.10
71764;BME280;59602;52.142;5.408;2022-07-23T13:23:34;102130.69;;;23.07;48.65
71764;BME280;59602;52.142;5.408;2022-07-23T13:26:02;102134.22;;;23.08;49.67
71764;BME280;59602;52.142;5.408;2022-07-23T13:28:29;102127.72;;;23.14;49.91
71764;BME280;59602;52.142;5.408;2022-07-23T13:30:57;102124.59;;;23.12;47.94
71764;BME280;59602;52.142;5.408;2022-07-23T13:33:25;102127.38;;;23.12;49.95
71764;BME280;59602;52.142;5.408;2022-07-23T13:35:53;102134.38;;;23.17;48.27
71764;BME280;59602;52.142;5.408;2022-07-23T13:38:22;102122.31;;;23.24;49.61
71764;BME280;59602;52.142;5.408;2022-07-23T13:40:50;102124.25;;;23.27;49.67
71764;BME280;59602;52.142;5.408;2022-07-23T13:43:21;102133.16;;;23.34;50.34
71764;BME280;59602;52.142;5.408;2022-07-23T13:45:49;102131.16;;;23.35;48.91
71764;BME280;59602;52.142;5.408;2022-07-23T13:48:19;102124.25;;;23.27;49.57
71764;BME280;59602;52.142;5.408;2022-07-23T13:50:47;102118.34;;;23.25;50.07
71764;BME280;59602;52.142;5.408;2022-07-23T13:53:17;102115.56;;;23.25;49.82